Terminal Aerodrome Forecast
Issued by NWS

Home | Current Version | Previous Version | Text Only | Print | Product List | Glossary On
Versions: 1 2 3 4 5 6 7 8 9 10 11 12
337
FTUS46 KLOX 112325
TAFBUR
TAF
KBUR 112325Z 1200/1224 VRB03KT P6SM SCT250
     FM120400 34006KT P6SM BKN250
     FM120700 VRB03KT P6SM BKN250
     FM122200 18006KT P6SM BKN250=

USA.gov is the U.S. government's official web portal to all federal, state and local government web resources and services.